CheckWX is a tool to help pilots better visualize weather data.  It is not intended as a substitute for an official pre-flight weather briefing.

00:48:07 UTC

KLAF METAR
Purdue University Airport
Lafayette, Indiana, USA
Current

54 mins ago

KLAF 242354Z AUTO VRB05KT 10SM FEW047 30/19 A2990 RMK AO2 SLP119 T03000194 10328 20300 55009
Observed
May-24 @ 23:54 UTC
Wind
  • Variable at 5 KTS
Visibility
Flight Rules
VFR
Cloud Levels
  • Few at 4,700' AGL
Temperature
30°C / 86°F
Dewpoint
19°C / 66°F
Humidity
52%
Altimeter
29.9" Hg
Pressure
1012.52 hPa
Previous

2 hours ago

KLAF 242254Z AUTO VRB05KT 10SM CLR 31/19 A2990 RMK AO2 SLP119 T03060189
Observed
May-24 @ 22:54 UTC
Wind
  • Variable at 5 KTS
Visibility
Flight Rules
VFR
Cloud Levels
  • Clear skies
Temperature
31°C / 88°F
Dewpoint
19°C / 66°F
Humidity
49%
Altimeter
29.9" Hg
Pressure
1012.52 hPa
Previous

3 hours ago

KLAF 242154Z 15010G14KT 10SM CLR 31/19 A2992 RMK AO2 SLP125 T03110194
Observed
May-24 @ 21:54 UTC
Wind
  • 150° at 10 KTS
  • Gusting to 14 KTS
Visibility
Flight Rules
VFR
Cloud Levels
  • Clear skies
Temperature
31°C / 88°F
Dewpoint
19°C / 66°F
Humidity
49%
Altimeter
29.92" Hg
Pressure
1013.22 hPa